DW0967 Weather Reports


Display with metric or nautical units.
time (UTC)temp
F
wind
direction
speed
MPH
gust
MPH
rain 1hr
in
rain 24hr
in
rain mn
in
humidity
%
barometer
mb
20210921044206 47 40 0.0 3.0 0.02 0.02 0.02 84 1028.0
20210921041206 49 44 11.0 15.0 0.00 0.00 0.00 75 1028.0
20210921040705 49 41 7.0 12.0 0.00 0.00 0.00 72 1028.0
20210921040205 50 37 9.0 20.0 0.00 0.00 0.00 68 1028.0
20210921034706 53 0 10.0 18.0 0.00 0.00 0.00 59 1028.0
20210921034206 53 38 7.0 12.0 0.00 0.00 0.00 56 1027.7
20210921033206 53 60 8.0 15.0 0.00 0.00 0.00 54 1026.7
20210921031705 54 42 8.0 16.0 0.00 0.00 0.00 53 1026.7
20210921030205 55 42 12.0 16.0 0.00 0.00 0.00 51 1026.3
20210921024705 56 70 7.0 10.0 0.00 0.00 0.00 47 1025.5
20210921023705 57 66 7.0 13.0 0.00 0.00 0.00 45 1025.3
20210921023206 57 86 7.0 13.0 0.00 0.00 0.00 44 1024.6
20210921021205 57 92 5.0 12.0 0.00 0.00 0.00 38 1024.6
20210921020705 57 73 5.0 10.0 0.00 0.00 0.00 36 1024.3
20210921020206 58 51 9.0 13.0 0.00 0.00 0.00 35 1024.1
20210921014205 58 75 3.0 9.0 0.00 0.00 0.00 32 1023.2
20210921013705 58 77 5.0 9.0 0.00 0.00 0.00 32 1022.6
20210921011705 58 87 2.0 5.0 0.00 0.00 0.00 35 1022.4
20210921011205 58 86 1.0 3.0 0.00 0.00 0.00 34 1022.4
20210921010705 58 87 1.0 3.0 0.00 0.00 0.00 33 1022.2
20210921010205 59 101 2.0 5.0 0.00 0.00 0.00 33 1021.1
20210921004206 59 91 1.0 2.0 0.00 0.00 0.00 33 1021.1
20210921003205 60 94 1.0 5.0 0.00 0.00 0.00 32 1021.1
20210921001206 60 83 2.0 5.0 0.00 0.00 0.00 32 1021.1
20210921000706 61 136 1.0 3.0 0.00 0.00 0.00 31 1021.1
20210921000206 61 164 1.0 7.0 0.00 0.00 0.00 31 1021.1
20210920234706 61 159 5.0 12.0 0.00 0.00 0.00 30 1021.1
20210920234205 62 147 4.0 12.0 0.00 0.00 0.00 30 1021.1
20210920233706 62 127 3.0 5.0 0.00 0.00 0.00 31 1021.1
20210920231705 63 65 3.0 5.0 0.00 0.00 0.00 30 1020.5
20210920230706 63 95 3.0 7.0 0.00 0.00 0.00 32 1020.5
20210920230205 63 96 5.0 12.0 0.00 0.00 0.00 30 1020.5
20210920224705 63 70 5.0 9.0 0.00 0.00 0.00 32 1020.5
20210920224205 64 98 1.0 5.0 0.00 0.00 0.00 31 1020.4
20210920223206 64 144 1.0 10.0 0.00 0.00 0.00 30 1020.2
20210920220705 64 148 2.0 9.0 0.00 0.00 0.00 30 1019.8
20210920213707 65 68 2.0 6.0 0.00 0.00 0.00 30 1019.8
20210920213205 65 97 3.0 15.0 0.00 0.00 0.00 30 1019.8
20210920211706 66 78 6.0 12.0 0.00 0.00 0.00 29 1019.8
20210920211205 66 83 2.0 6.0 0.00 0.00 0.00 32 1019.8
20210920210705 66 49 6.0 12.0 0.00 0.00 0.00 30 1020.3
20210920210207 66 111 5.0 15.0 0.00 0.00 0.00 29 1020.3
20210920204705 66 71 4.0 10.0 0.00 0.00 0.00 31 1020.3
20210920203706 66 128 3.0 7.0 0.00 0.00 0.00 29 1020.4
20210920203205 65 110 5.0 13.0 0.00 0.00 0.00 32 1020.4
20210920201205 66 122 4.0 9.0 0.00 0.00 0.00 30 1020.2
20210920200706 66 86 5.0 12.0 0.00 0.00 0.00 30 1019.4
20210920194705 66 111 3.0 9.0 0.00 0.00 0.00 29 1019.4
20210920194205 65 116 5.0 12.0 0.00 0.00 0.00 30 1019.4
20210920193706 64 117 5.0 15.0 0.00 0.00 0.00 32 1019.4
20210920193205 65 86 9.0 15.0 0.00 0.00 0.00 30 1019.4
20210920191705 65 29 14.0 24.0 0.00 0.00 0.00 28 1019.4
20210920191205 65 65 11.0 20.0 0.00 0.00 0.00 29 1019.4
20210920184206 65 47 14.0 23.0 0.00 0.00 0.00 28 1019.1
20210920183705 66 2 7.0 12.0 0.00 0.00 0.00 28 1019.4
20210920183205 66 56 9.0 13.0 0.00 0.00 0.00 29 1019.4
20210920181705 65 74 8.0 12.0 0.00 0.00 0.00 31 1019.4
20210920180705 65 46 9.0 18.0 0.00 0.00 0.00 30 1019.2
20210920180207 65 56 12.0 18.0 0.00 0.00 0.00 28 1019.2
20210920174205 64 108 8.0 17.0 0.00 0.00 0.00 30 1019.3
20210920173705 64 70 7.0 14.0 0.00 0.00 0.00 33 1019.3
20210920173205 64 177 2.0 12.0 0.00 0.00 0.00 36 1019.6
20210920171705 63 185 6.0 12.0 0.00 0.00 0.00 36 1019.6
20210920170705 63 170 11.0 16.0 0.00 0.00 0.00 37 1019.6
20210920170205 63 175 7.0 16.0 0.00 0.00 0.00 38 1019.6
20210920164705 63 155 2.0 10.0 0.00 0.00 0.00 37 1019.6
20210920164205 62 157 7.0 12.0 0.00 0.00 0.00 36 1019.6
20210920163705 63 187 3.0 9.0 0.00 0.00 0.00 39 1019.6
20210920163206 62 167 5.0 12.0 0.00 0.00 0.00 40 1019.4
20210920161705 61 214 3.0 7.0 0.00 0.00 0.00 47 1019.3
20210920161205 61 175 5.0 10.0 0.00 0.00 0.00 47 1019.3
20210920160205 60 171 3.0 10.0 0.00 0.00 0.00 48 1019.3
20210920154705 59 105 2.0 5.0 0.00 0.00 0.00 49 1019.0
20210920154206 58 142 2.0 3.0 0.00 0.00 0.00 50 1019.0
20210920153705 58 145 2.0 3.0 0.00 0.00 0.00 50 1019.0
20210920153205 58 158 2.0 6.0 0.00 0.00 0.00 52 1019.0
20210920151705 57 169 3.0 9.0 0.00 0.00 0.00 53 1018.7
20210920150705 56 156 3.0 5.0 0.00 0.00 0.00 54 1018.5
20210920150206 55 172 2.0 9.0 0.00 0.00 0.00 55 1018.8
20210920144705 54 171 4.0 10.0 0.00 0.00 0.00 58 1018.6
20210920143705 54 159 5.0 7.0 0.00 0.00 0.00 59 1018.6
20210920143205 54 173 4.0 6.0 0.00 0.00 0.00 61 1018.5
20210920141205 53 165 2.0 3.0 0.00 0.00 0.00 66 1018.3
20210920140705 52 167 2.0 3.0 0.00 0.00 0.00 66 1018.3
20210920134205 51 181 0.0 1.0 0.00 0.00 0.00 71 1017.6
20210920133705 50 181 1.0 3.0 0.00 0.00 0.00 72 1017.5
20210920133205 50 181 1.0 3.0 0.00 0.00 0.00 73 1016.6
20210920131705 48 181 1.0 2.0 0.00 0.00 0.00 76 1016.6
20210920130204 49 181 1.0 2.0 0.00 0.00 0.00 74 1016.6
20210920124709 49 232 0.0 1.0 0.00 0.00 0.00 74 1016.6
20210920123205 49 75 1.0 3.0 0.00 0.00 0.00 73 1015.7
20210920121206 50 65 0.0 2.0 0.00 0.00 0.00 73 1015.8
20210920120705 50 65 0.0 1.0 0.00 0.00 0.00 72 1015.8
20210920120205 51 65 1.0 6.0 0.00 0.00 0.00 72 1015.1
20210920114704 51 37 5.0 7.0 0.00 0.00 0.00 70 1015.1
20210920114204 52 38 3.0 5.0 0.00 0.00 0.00 69 1015.1
20210920113705 52 164 0.0 1.0 0.00 0.00 0.00 69 1015.1
20210920113204 52 164 1.0 2.0 0.00 0.00 0.00 68 1015.1
20210920111706 53 173 1.0 3.0 0.00 0.00 0.00 66 1014.9
20210920111205 53 157 1.0 3.0 0.00 0.00 0.00 66 1014.9
20210920110705 53 117 1.0 2.0 0.00 0.00 0.00 66 1014.9
20210920110205 53 153 1.0 7.0 0.00 0.00 0.00 66 1014.9
20210920104704 53 169 3.0 7.0 0.00 0.00 0.00 64 1014.8
20210920103705 53 157 2.0 3.0 0.00 0.00 0.00 61 1014.8
20210920103205 53 227 2.0 9.0 0.00 0.00 0.00 62 1014.8
20210920101706 53 168 5.0 9.0 0.00 0.00 0.00 61 1014.8
20210920101204 53 169 3.0 12.0 0.00 0.00 0.00 61 1014.8
20210920100706 53 170 3.0 6.0 0.00 0.00 0.00 60 1015.0
20210920100205 54 169 1.0 6.0 0.00 0.00 0.00 60 1015.0
20210920094205 55 166 4.0 9.0 0.00 0.00 0.00 61 1014.8
20210920093706 55 163 2.0 5.0 0.00 0.00 0.00 61 1014.8
20210920093205 56 155 2.0 6.0 0.00 0.00 0.00 60 1014.8
20210920091705 56 164 1.0 3.0 0.00 0.00 0.00 58 1014.7
20210920091205 56 164 2.0 5.0 0.00 0.00 0.00 57 1014.7
20210920090705 56 171 2.0 9.0 0.00 0.00 0.00 58 1014.7
20210920083205 56 47 0.0 2.0 0.00 0.00 0.00 60 1014.5
20210920081204 57 50 3.0 7.0 0.00 0.00 0.00 59 1014.5
20210920080205 57 347 3.0 7.0 0.00 0.00 0.00 60 1014.5
20210920074205 57 51 5.0 8.0 0.00 0.00 0.00 60 1013.4
20210920073204 57 26 7.0 15.0 0.00 0.00 0.00 59 1013.4
20210920071706 58 41 11.0 21.0 0.00 0.00 0.00 57 1013.4
20210920071204 59 34 15.0 24.0 0.00 0.00 0.00 56 1013.4
20210920070205 60 46 12.0 16.0 0.00 0.00 0.00 54 1013.2
20210920064705 61 52 6.0 12.0 0.00 0.00 0.00 53 1012.3
20210920064205 62 57 6.0 20.0 0.00 0.00 0.00 51 1012.3
20210920063705 64 60 8.0 17.0 0.00 0.00 0.00 48 1010.2
20210920063205 66 55 9.0 26.0 0.00 0.00 0.00 44 1010.2
20210920061329 69 168 5.0 8.0 0.00 0.00 0.00 32 1010.2
20210920060706 70 168 5.0 9.0 0.00 0.00 0.00 31 1010.2
20210920060205 71 180 1.0 8.0 0.00 0.00 0.00 30 1009.9
20210920054705 70 229 5.0 9.0 0.00 0.00 0.00 30 1009.9
20210920054205 70 223 3.0 5.0 0.00 0.00 0.00 30 1009.9
20210920053705 70 211 5.0 10.0 0.00 0.00 0.00 30 1009.9